createdAt,value
2023-01-21T00:00:59.269Z,0
2023-01-21T00:02:02.066Z,0
2023-01-21T00:03:06.044Z,0
2023-01-21T00:04:10.665Z,0
2023-01-21T00:05:13.605Z,0
2023-01-21T00:06:16.606Z,0
2023-01-21T00:07:19.690Z,0
2023-01-21T00:08:22.563Z,0
2023-01-21T00:09:25.116Z,0
2023-01-21T00:10:27.857Z,0
2023-01-21T00:11:30.656Z,0
2023-01-21T00:12:34.050Z,0
2023-01-21T00:13:37.702Z,0
2023-01-21T00:14:41.257Z,0
2023-01-21T00:15:44.697Z,0
2023-01-21T00:16:47.817Z,0
2023-01-21T00:17:50.956Z,0
2023-01-21T00:18:54.733Z,0
2023-01-21T00:19:57.588Z,0
2023-01-21T00:21:00.114Z,0
2023-01-21T00:22:02.560Z,0
2023-01-21T00:23:05.352Z,0
2023-01-21T00:24:08.909Z,0
2023-01-21T00:25:12.955Z,0
2023-01-21T00:26:16.327Z,0
2023-01-21T00:27:19.334Z,0
2023-01-21T00:28:22.448Z,0
2023-01-21T00:29:25.813Z,0
2023-01-21T00:30:29.374Z,0
2023-01-21T00:31:33.634Z,0
2023-01-21T00:32:37.863Z,0
2023-01-21T00:33:41.231Z,0
2023-01-21T00:34:43.829Z,0
2023-01-21T00:35:47.386Z,0
2023-01-21T00:36:51.002Z,0
2023-01-21T00:37:54.252Z,0
2023-01-21T00:38:57.390Z,0
2023-01-21T00:40:00.905Z,0
2023-01-21T00:41:04.052Z,0
2023-01-21T00:42:06.764Z,0
2023-01-21T00:43:10.608Z,0
2023-01-21T00:44:13.829Z,0
2023-01-21T00:45:16.710Z,0
2023-01-21T00:46:20.106Z,0
2023-01-21T00:47:24.076Z,0
2023-01-21T00:48:27.404Z,0
2023-01-21T00:49:30.476Z,0
2023-01-21T00:50:33.904Z,0
2023-01-21T00:51:36.627Z,0
2023-01-21T00:52:39.365Z,0
2023-01-21T00:53:43.417Z,0
2023-01-21T00:54:46.216Z,0
2023-01-21T00:55:49.613Z,0
2023-01-21T00:56:52.862Z,0
2023-01-21T00:57:56.914Z,0
2023-01-21T00:59:00.018Z,0
2023-01-21T01:00:03.644Z,0
2023-01-21T01:01:06.488Z,0
2023-01-21T01:02:10.339Z,0
2023-01-21T01:03:13.448Z,0
2023-01-21T01:04:16.275Z,0
2023-01-21T01:05:19.286Z,0
2023-01-21T01:06:22.341Z,0
2023-01-21T01:07:25.399Z,0
2023-01-21T01:08:29.016Z,0
2023-01-21T01:09:31.837Z,0
2023-01-21T01:10:34.565Z,0
2023-01-21T01:11:37.663Z,0
2023-01-21T01:12:41.127Z,0
2023-01-21T01:13:43.860Z,0
2023-01-21T01:14:46.713Z,0
2023-01-21T01:15:50.089Z,0
2023-01-21T01:16:53.049Z,0
2023-01-21T01:17:56.820Z,0
2023-01-21T01:19:00.594Z,0
2023-01-21T01:20:03.496Z,0
2023-01-21T01:21:07.151Z,0
2023-01-21T01:22:10.745Z,0
2023-01-21T01:23:13.525Z,0
2023-01-21T01:24:16.312Z,0
2023-01-21T01:25:19.741Z,0
2023-01-21T01:26:22.527Z,0
2023-01-21T01:27:25.804Z,0
2023-01-21T01:28:28.385Z,0
2023-01-21T01:29:31.392Z,0
2023-01-21T01:30:34.132Z,0
2023-01-21T01:31:37.488Z,0
2023-01-21T01:32:41.743Z,0
2023-01-21T01:33:45.275Z,0
2023-01-21T01:34:49.025Z,0
2023-01-21T01:35:52.487Z,0
2023-01-21T01:36:55.230Z,0
2023-01-21T01:37:58.054Z,0
2023-01-21T01:39:01.196Z,0
2023-01-21T01:40:04.291Z,0
2023-01-21T01:41:07.142Z,0
2023-01-21T01:42:10.200Z,0
2023-01-21T01:43:13.632Z,0
2023-01-21T01:44:17.361Z,0
2023-01-21T01:45:20.774Z,0
2023-01-21T01:46:23.941Z,0
2023-01-21T01:47:27.226Z,0
2023-01-21T01:48:30.213Z,0
2023-01-21T01:49:33.516Z,0
2023-01-21T01:50:37.617Z,0
2023-01-21T01:51:41.012Z,0
2023-01-21T01:52:44.425Z,0
2023-01-21T01:53:47.726Z,0
2023-01-21T01:54:51.264Z,0
2023-01-21T01:55:53.978Z,0
2023-01-21T01:56:57.676Z,0
2023-01-21T01:58:00.172Z,0
2023-01-21T01:59:02.975Z,0
2023-01-21T02:00:05.230Z,0
2023-01-21T02:01:08.605Z,0
2023-01-21T02:02:12.286Z,0
2023-01-21T02:03:15.306Z,0
2023-01-21T02:04:18.026Z,0
2023-01-21T02:05:20.572Z,0
2023-01-21T02:06:23.921Z,0
2023-01-21T02:07:27.637Z,0
2023-01-21T02:08:31.055Z,0
2023-01-21T02:09:34.359Z,0
2023-01-21T02:10:37.106Z,0
2023-01-21T02:11:40.449Z,0
2023-01-21T02:12:43.862Z,0
2023-01-21T02:13:46.629Z,0
2023-01-21T02:14:49.753Z,0
2023-01-21T02:15:52.457Z,0
2023-01-21T02:16:56.105Z,0
2023-01-21T02:17:59.275Z,0
2023-01-21T02:19:02.686Z,0
2023-01-21T02:20:05.445Z,0
2023-01-21T02:21:08.665Z,0
2023-01-21T02:22:12.101Z,0
2023-01-21T02:23:15.885Z,0
2023-01-21T02:24:18.994Z,0
2023-01-21T02:25:22.363Z,0
2023-01-21T02:26:25.773Z,0
2023-01-21T02:27:30.906Z,0
2023-01-21T02:28:34.482Z,0
2023-01-21T02:29:37.546Z,0
2023-01-21T02:30:40.647Z,0
2023-01-21T02:31:43.923Z,0
2023-01-21T02:32:46.783Z,0
2023-01-21T02:33:49.817Z,0
2023-01-21T02:34:53.213Z,0
2023-01-21T02:35:56.639Z,0
2023-01-21T02:36:59.755Z,0
2023-01-21T02:38:03.637Z,0
2023-01-21T02:39:07.099Z,0
2023-01-21T02:40:10.164Z,0
2023-01-21T02:41:13.345Z,0
2023-01-21T02:42:16.617Z,0
2023-01-21T02:43:19.881Z,0
2023-01-21T02:44:23.175Z,0
2023-01-21T02:45:25.716Z,0
2023-01-21T02:46:28.644Z,0
2023-01-21T02:47:32.232Z,0
2023-01-21T02:48:35.579Z,0
2023-01-21T02:49:38.353Z,0
2023-01-21T02:50:41.467Z,0
2023-01-21T02:51:44.710Z,0
2023-01-21T02:52:47.535Z,0
2023-01-21T02:53:51.246Z,0
2023-01-21T02:54:54.436Z,0
2023-01-21T02:55:57.215Z,0
2023-01-21T02:57:00.774Z,0
2023-01-21T02:58:03.918Z,0
2023-01-21T02:59:07.303Z,0
2023-01-21T03:00:10.397Z,0
2023-01-21T03:01:13.480Z,0
2023-01-21T03:02:17.303Z,0
2023-01-21T03:03:20.166Z,0
2023-01-21T03:04:23.273Z,0
2023-01-21T03:05:26.376Z,0
2023-01-21T03:06:28.873Z,0
2023-01-21T03:07:32.287Z,0
2023-01-21T03:08:35.450Z,0
2023-01-21T03:09:38.891Z,0
2023-01-21T03:10:41.997Z,0
2023-01-21T03:11:44.770Z,0
2023-01-21T03:12:47.884Z,0
2023-01-21T03:13:50.598Z,0
2023-01-21T03:14:53.391Z,0
2023-01-21T03:15:55.836Z,0
2023-01-21T03:16:58.504Z,0
2023-01-21T03:18:02.046Z,0
2023-01-21T03:19:05.180Z,0
2023-01-21T03:20:09.178Z,0
2023-01-21T03:21:12.577Z,0
2023-01-21T03:22:15.381Z,0
2023-01-21T03:23:19.376Z,0
2023-01-21T03:24:22.580Z,0
2023-01-21T03:25:26.072Z,0
2023-01-21T03:26:29.609Z,0
2023-01-21T03:27:32.645Z,0
2023-01-21T03:28:35.699Z,0
2023-01-21T03:29:38.514Z,0
2023-01-21T03:30:42.258Z,0
2023-01-21T03:31:45.596Z,0
2023-01-21T03:32:48.959Z,0
2023-01-21T03:33:52.424Z,0
2023-01-21T03:34:55.495Z,0
2023-01-21T03:35:58.591Z,0
2023-01-21T03:37:01.471Z,0
2023-01-21T03:38:04.861Z,0
2023-01-21T03:39:07.912Z,0
2023-01-21T03:40:11.940Z,0
2023-01-21T03:41:16.483Z,0
2023-01-21T03:42:19.596Z,0
2023-01-21T03:43:22.382Z,0
2023-01-21T03:44:26.127Z,0
2023-01-21T03:45:28.914Z,0
2023-01-21T03:46:32.522Z,0
2023-01-21T03:47:35.544Z,0
2023-01-21T03:48:38.919Z,0
2023-01-21T03:49:42.279Z,0
2023-01-21T03:50:45.041Z,0
2023-01-21T03:51:48.236Z,0
2023-01-21T03:52:51.290Z,0
2023-01-21T03:53:54.665Z,0
2023-01-21T03:54:57.766Z,0
2023-01-21T03:56:00.712Z,0
2023-01-21T03:57:04.262Z,0
2023-01-21T03:58:07.420Z,0
2023-01-21T03:59:10.433Z,0
2023-01-21T04:00:13.660Z,0
2023-01-21T04:01:18.210Z,0
2023-01-21T04:02:22.257Z,0
2023-01-21T04:03:26.378Z,0
2023-01-21T04:04:29.677Z,0
2023-01-21T04:05:31.940Z,0
2023-01-21T04:06:35.209Z,0
2023-01-21T04:07:38.080Z,0
2023-01-21T04:08:41.375Z,0
2023-01-21T04:09:44.795Z,0
2023-01-21T04:10:47.664Z,0
2023-01-21T04:11:51.347Z,0
2023-01-21T04:12:54.491Z,0
2023-01-21T04:13:57.595Z,0
2023-01-21T04:15:00.398Z,0
2023-01-21T04:16:07.256Z,0
2023-01-21T04:17:11.303Z,0
2023-01-21T04:18:15.129Z,0
2023-01-21T04:19:17.926Z,0
2023-01-21T04:20:21.070Z,0
2023-01-21T04:21:24.745Z,0
2023-01-21T04:22:27.460Z,0
2023-01-21T04:23:30.695Z,0
2023-01-21T04:24:34.716Z,0
2023-01-21T04:25:38.040Z,0
2023-01-21T04:26:41.550Z,0
2023-01-21T04:27:44.992Z,0
2023-01-21T04:28:48.358Z,0
2023-01-21T04:29:52.043Z,0
2023-01-21T04:30:55.597Z,0
2023-01-21T04:31:59.230Z,0
2023-01-21T04:33:02.751Z,0
2023-01-21T04:34:06.096Z,0
2023-01-21T04:35:09.901Z,0
2023-01-21T04:36:12.994Z,0
2023-01-21T04:37:16.454Z,0
2023-01-21T04:38:19.713Z,0
2023-01-21T04:39:22.213Z,0
2023-01-21T04:40:25.429Z,0
2023-01-21T04:41:28.550Z,0
2023-01-21T04:42:31.940Z,0
2023-01-21T04:43:35.050Z,0
2023-01-21T04:44:38.390Z,0
2023-01-21T04:45:40.966Z,0
2023-01-21T04:46:44.547Z,0
2023-01-21T04:47:47.297Z,0
2023-01-21T04:48:50.403Z,0
2023-01-21T04:49:53.858Z,0
2023-01-21T04:50:57.032Z,0
2023-01-21T04:51:59.790Z,0
2023-01-21T04:53:02.941Z,0
2023-01-21T04:54:05.762Z,0
2023-01-21T04:55:08.824Z,0
2023-01-21T04:56:11.909Z,0
2023-01-21T04:57:15.260Z,0
2023-01-21T04:58:18.328Z,0
2023-01-21T04:59:22.115Z,0
2023-01-21T05:00:25.926Z,0
2023-01-21T05:01:29.342Z,0
2023-01-21T05:02:33.183Z,0
2023-01-21T05:03:36.924Z,0
2023-01-21T05:04:39.728Z,0
2023-01-21T05:05:42.443Z,0
2023-01-21T05:06:45.722Z,0
2023-01-21T05:07:48.462Z,0
2023-01-21T05:08:51.180Z,0
2023-01-21T05:09:54.177Z,0
2023-01-21T05:10:56.636Z,0
2023-01-21T05:11:59.980Z,0
2023-01-21T05:13:02.533Z,0
2023-01-21T05:14:05.979Z,0
2023-01-21T05:15:09.475Z,0
2023-01-21T05:16:12.705Z,0
2023-01-21T05:17:15.981Z,0
2023-01-21T05:18:19.145Z,0
2023-01-21T05:19:22.928Z,0
2023-01-21T05:20:26.097Z,0
2023-01-21T05:21:29.168Z,0
2023-01-21T05:22:32.225Z,0
2023-01-21T05:23:35.624Z,0
2023-01-21T05:24:38.137Z,0
2023-01-21T05:25:41.586Z,0
2023-01-21T05:26:44.679Z,0
2023-01-21T05:27:47.755Z,0
2023-01-21T05:28:50.840Z,0
2023-01-21T05:29:54.350Z,0
2023-01-21T05:30:57.567Z,0
2023-01-21T05:32:01.865Z,0
2023-01-21T05:33:05.251Z,0
2023-01-21T05:34:07.947Z,0
2023-01-21T05:35:10.484Z,0
2023-01-21T05:36:13.557Z,0
2023-01-21T05:37:16.301Z,0
2023-01-21T05:38:19.313Z,0
2023-01-21T05:39:22.140Z,0
2023-01-21T05:40:25.517Z,0
2023-01-21T05:41:28.871Z,0
2023-01-21T05:42:31.734Z,0
2023-01-21T05:43:34.588Z,0
2023-01-21T05:44:37.865Z,0
2023-01-21T05:45:40.866Z,0
2023-01-21T05:46:43.771Z,0
2023-01-21T05:47:46.910Z,0
2023-01-21T05:48:50.677Z,0
2023-01-21T05:49:53.764Z,0
2023-01-21T05:50:58.335Z,0
2023-01-21T05:52:02.036Z,0
2023-01-21T05:53:04.520Z,0
2023-01-21T05:54:06.714Z,0
2023-01-21T05:55:10.021Z,0
2023-01-21T05:56:13.391Z,0
2023-01-21T05:57:15.831Z,0
2023-01-21T05:58:18.892Z,0
2023-01-21T05:59:22.393Z,0
2023-01-21T06:00:25.215Z,0
2023-01-21T06:01:28.332Z,0
2023-01-21T06:02:31.849Z,0
2023-01-21T06:03:35.453Z,0
2023-01-21T06:04:38.967Z,0
2023-01-21T06:05:42.126Z,0
2023-01-21T06:06:45.412Z,0
2023-01-21T06:07:47.979Z,0
2023-01-21T06:08:50.461Z,0
2023-01-21T06:09:52.646Z,0
2023-01-21T06:10:55.397Z,0
2023-01-21T06:11:58.275Z,0
2023-01-21T06:13:01.373Z,0
2023-01-21T06:14:04.703Z,0
2023-01-21T06:15:08.043Z,0
2023-01-21T06:16:11.222Z,0
2023-01-21T06:17:14.960Z,0
2023-01-21T06:18:18.079Z,0
2023-01-21T06:19:21.595Z,0
2023-01-21T06:20:25.230Z,0
2023-01-21T06:21:28.680Z,0
2023-01-21T06:22:32.066Z,0
2023-01-21T06:23:35.429Z,0
2023-01-21T06:24:38.164Z,0
2023-01-21T06:25:41.215Z,0
2023-01-21T06:26:44.400Z,0
2023-01-21T06:27:47.819Z,0
2023-01-21T06:28:50.909Z,0
2023-01-21T06:29:53.965Z,0
2023-01-21T06:30:57.475Z,0
2023-01-21T06:32:01.013Z,0
2023-01-21T06:33:05.476Z,0
2023-01-21T06:34:09.229Z,0
2023-01-21T06:35:13.027Z,0
2023-01-21T06:36:16.392Z,0
2023-01-21T06:37:19.289Z,0
2023-01-21T06:38:22.774Z,0
2023-01-21T06:39:26.158Z,0
2023-01-21T06:40:29.429Z,0
2023-01-21T06:41:32.821Z,4
2023-01-21T06:42:35.615Z,4
2023-01-21T06:43:38.617Z,4
2023-01-21T06:44:41.687Z,0
2023-01-21T06:45:44.475Z,4
2023-01-21T06:46:59.945Z,4
2023-01-21T06:48:05.008Z,8
2023-01-21T06:49:08.301Z,4
2023-01-21T06:50:12.091Z,8
2023-01-21T06:51:16.403Z,8
2023-01-21T06:52:19.293Z,12
2023-01-21T06:53:22.572Z,12
2023-01-21T06:54:25.423Z,12
2023-01-21T06:55:33.193Z,16
2023-01-21T06:56:35.738Z,20
2023-01-21T06:57:38.903Z,20
2023-01-21T06:58:42.287Z,20
2023-01-21T06:59:45.838Z,24
2023-01-21T07:00:48.860Z,32
2023-01-21T07:01:51.882Z,32
2023-01-21T07:02:55.278Z,36
2023-01-21T07:03:59.034Z,40
2023-01-21T07:05:02.708Z,44
2023-01-21T07:06:07.199Z,56
2023-01-21T07:07:10.352Z,60
2023-01-21T07:08:13.765Z,64
2023-01-21T07:09:17.762Z,72
2023-01-21T07:10:21.129Z,76
2023-01-21T07:11:24.316Z,80
2023-01-21T07:12:27.485Z,88
2023-01-21T07:13:30.857Z,96
2023-01-21T07:14:33.355Z,104
2023-01-21T07:15:36.081Z,112
2023-01-21T07:16:38.810Z,124
2023-01-21T07:17:41.255Z,136
2023-01-21T07:18:44.354Z,152
2023-01-21T07:19:47.728Z,168
2023-01-21T07:20:51.078Z,180
2023-01-21T07:21:54.453Z,192
2023-01-21T07:22:57.818Z,208
2023-01-21T07:24:01.268Z,232
2023-01-21T07:25:04.055Z,252
2023-01-21T07:26:07.725Z,268
2023-01-21T07:27:11.198Z,276
2023-01-21T07:28:14.219Z,288
2023-01-21T07:29:17.374Z,300
2023-01-21T07:30:20.468Z,320
2023-01-21T07:31:23.543Z,340
2023-01-21T07:32:27.812Z,356
2023-01-21T07:33:31.101Z,364
2023-01-21T07:34:33.609Z,368
2023-01-21T07:35:37.100Z,372
2023-01-21T07:36:40.202Z,416
2023-01-21T07:37:43.989Z,476
2023-01-21T07:38:47.851Z,516
2023-01-21T07:39:50.365Z,548
2023-01-21T07:40:56.511Z,580
2023-01-21T07:41:59.556Z,600
2023-01-21T07:43:02.653Z,652
2023-01-21T07:44:06.385Z,720
2023-01-21T07:45:10.128Z,736
2023-01-21T07:46:12.870Z,740
2023-01-21T07:47:16.079Z,740
2023-01-21T07:48:19.444Z,744
2023-01-21T07:49:22.649Z,788
2023-01-21T07:50:25.664Z,820
2023-01-21T07:51:29.645Z,832
2023-01-21T07:52:32.745Z,844
2023-01-21T07:53:36.240Z,856
2023-01-21T07:54:40.040Z,872
2023-01-21T07:55:42.876Z,876
2023-01-21T07:56:45.861Z,848
2023-01-21T07:57:48.615Z,856
2023-01-21T07:58:51.731Z,908
2023-01-21T07:59:54.887Z,912
2023-01-21T08:00:57.423Z,888
2023-01-21T08:02:00.500Z,888
2023-01-21T08:03:04.654Z,880
2023-01-21T08:04:08.103Z,900
2023-01-21T08:05:11.473Z,924
2023-01-21T08:06:14.546Z,944
2023-01-21T08:07:17.020Z,980
2023-01-21T08:08:20.358Z,1084
2023-01-21T08:09:23.522Z,1144
2023-01-21T08:10:27.066Z,1180
2023-01-21T08:11:29.892Z,1320
2023-01-21T08:12:32.978Z,2028
2023-01-21T08:13:36.391Z,2120
2023-01-21T08:14:39.474Z,4140
2023-01-21T08:15:42.606Z,4412
2023-01-21T08:16:45.947Z,4380
2023-01-21T08:17:49.257Z,4788
2023-01-21T08:18:52.706Z,4328
2023-01-21T08:19:55.412Z,4840
2023-01-21T08:20:58.863Z,5500
2023-01-21T08:22:02.267Z,6436
2023-01-21T08:23:05.309Z,7472
2023-01-21T08:24:08.656Z,7764
2023-01-21T08:25:12.043Z,7452
2023-01-21T08:26:15.536Z,7112
2023-01-21T08:27:18.919Z,7232
2023-01-21T08:28:21.645Z,6968
2023-01-21T08:29:24.683Z,5956
2023-01-21T08:30:27.674Z,5236
2023-01-21T08:31:30.266Z,4888
2023-01-21T08:32:33.927Z,4744
2023-01-21T08:33:37.106Z,4800
2023-01-21T08:34:39.914Z,5124
2023-01-21T08:35:43.248Z,5740
2023-01-21T08:36:46.108Z,6020
2023-01-21T08:37:48.839Z,6864
2023-01-21T08:38:51.754Z,7940
2023-01-21T08:39:55.090Z,8420
2023-01-21T08:40:58.195Z,8532
2023-01-21T08:42:01.631Z,8184
2023-01-21T08:43:05.087Z,7888
2023-01-21T08:44:07.906Z,8140
2023-01-21T08:45:10.856Z,8596
2023-01-21T08:46:18.104Z,6640
2023-01-21T08:47:20.910Z,6568
2023-01-21T08:48:24.774Z,6864
2023-01-21T08:49:27.306Z,6940
2023-01-21T08:50:32.261Z,6692
2023-01-21T08:51:35.362Z,6304
2023-01-21T08:52:37.620Z,6376
2023-01-21T08:53:41.065Z,6268
2023-01-21T08:54:44.366Z,6184
2023-01-21T08:55:48.070Z,6308
2023-01-21T08:56:51.464Z,6396
2023-01-21T08:57:54.552Z,6320
2023-01-21T08:58:57.680Z,6332
2023-01-21T09:00:01.081Z,6040
2023-01-21T09:01:05.159Z,5280
2023-01-21T09:02:08.765Z,4816
2023-01-21T09:03:12.557Z,4988
2023-01-21T09:04:14.976Z,4664
2023-01-21T09:05:18.549Z,4572
2023-01-21T09:06:22.077Z,4664
2023-01-21T09:07:25.421Z,5164
2023-01-21T09:08:28.468Z,5428
2023-01-21T09:09:31.776Z,5504
2023-01-21T09:10:35.274Z,5432
2023-01-21T09:11:38.896Z,4988
2023-01-21T09:12:42.018Z,4832
2023-01-21T09:13:45.888Z,4308
2023-01-21T09:14:49.310Z,4408
2023-01-21T09:15:52.109Z,4500
2023-01-21T09:16:55.434Z,4952
2023-01-21T09:17:59.131Z,4164
2023-01-21T09:19:02.243Z,3576
2023-01-21T09:20:05.319Z,4180
2023-01-21T09:21:08.682Z,4172
2023-01-21T09:22:11.470Z,4180
2023-01-21T09:23:14.263Z,3840
2023-01-21T09:24:17.595Z,4640
2023-01-21T09:25:22.985Z,5012
2023-01-21T09:26:25.931Z,5584
2023-01-21T09:27:29.679Z,5356
2023-01-21T09:28:33.501Z,5196
2023-01-21T09:29:36.862Z,5156
2023-01-21T09:30:40.448Z,5368
2023-01-21T09:31:43.372Z,5412
2023-01-21T09:32:47.413Z,6220
2023-01-21T09:33:51.487Z,7852
2023-01-21T09:34:54.458Z,10188
2023-01-21T09:35:57.894Z,11012
2023-01-21T09:37:00.976Z,18176
2023-01-21T09:38:04.497Z,23328
2023-01-21T09:39:07.498Z,34912
2023-01-21T09:40:10.597Z,30016
2023-01-21T09:41:13.878Z,24096
2023-01-21T09:42:17.187Z,16916
2023-01-21T09:43:20.245Z,15408
2023-01-21T09:44:23.367Z,29472
2023-01-21T09:45:26.772Z,32544
2023-01-21T09:46:30.510Z,43936
2023-01-21T09:47:33.975Z,20832
2023-01-21T09:48:37.106Z,37312
2023-01-21T09:49:39.844Z,35040
2023-01-21T09:50:42.902Z,22592
2023-01-21T09:51:45.254Z,19520
2023-01-21T09:52:48.987Z,16960
2023-01-21T09:53:52.021Z,16600
2023-01-21T09:54:55.404Z,14008
2023-01-21T09:55:57.936Z,12812
2023-01-21T09:57:00.934Z,11716
2023-01-21T09:58:04.147Z,10892
2023-01-21T09:59:07.152Z,10380
2023-01-21T10:00:10.259Z,10428
2023-01-21T10:01:13.668Z,10464
2023-01-21T10:02:17.010Z,10232
2023-01-21T10:03:20.362Z,10388
2023-01-21T10:04:23.959Z,10808
2023-01-21T10:05:27.962Z,10832
2023-01-21T10:06:34.532Z,10144
2023-01-21T10:07:38.278Z,9360
2023-01-21T10:08:41.002Z,8788
2023-01-21T10:09:44.526Z,8172
2023-01-21T10:10:47.511Z,7584
2023-01-21T10:11:50.223Z,7176
2023-01-21T10:12:53.213Z,6756
2023-01-21T10:13:56.350Z,6820
2023-01-21T10:14:59.995Z,6336
2023-01-21T10:16:03.212Z,6348
2023-01-21T10:17:06.986Z,6324
2023-01-21T10:18:10.448Z,6288
2023-01-21T10:19:13.215Z,6268
2023-01-21T10:20:16.004Z,6160
2023-01-21T10:21:19.382Z,5904
2023-01-21T10:22:23.288Z,5752
2023-01-21T10:23:26.203Z,5748
2023-01-21T10:24:29.852Z,5996
2023-01-21T10:25:32.598Z,6648
2023-01-21T10:26:36.067Z,6704
2023-01-21T10:27:39.148Z,6824
2023-01-21T10:28:42.854Z,7404
2023-01-21T10:29:45.983Z,6584
2023-01-21T10:30:48.827Z,6112
2023-01-21T10:31:53.426Z,5860
2023-01-21T10:32:57.048Z,5804
2023-01-21T10:34:00.519Z,6372
2023-01-21T10:35:04.210Z,6352
2023-01-21T10:36:07.465Z,6192
2023-01-21T10:37:10.842Z,6536
2023-01-21T10:38:14.565Z,6684
2023-01-21T10:39:17.945Z,6712
2023-01-21T10:40:21.207Z,6424
2023-01-21T10:41:24.080Z,6764
2023-01-21T10:42:27.425Z,8764
2023-01-21T10:43:29.863Z,10888
2023-01-21T10:44:32.949Z,12760
2023-01-21T10:45:36.630Z,13308
2023-01-21T10:46:39.750Z,12644
2023-01-21T10:47:42.870Z,12656
2023-01-21T10:48:46.960Z,12460
2023-01-21T10:49:51.056Z,12324
2023-01-21T10:50:54.769Z,12560
2023-01-21T10:51:58.680Z,12472
2023-01-21T10:53:01.386Z,12316
2023-01-21T10:54:05.043Z,12368
2023-01-21T10:55:07.747Z,13504
2023-01-21T10:56:10.729Z,15980
2023-01-21T10:57:14.329Z,20288
2023-01-21T10:58:17.046Z,22496
2023-01-21T10:59:20.158Z,54368
2023-01-21T11:00:23.603Z,30688
2023-01-21T11:01:26.752Z,40224
2023-01-21T11:02:31.065Z,39520
2023-01-21T11:03:35.275Z,97760
2023-01-21T11:04:39.087Z,35840
2023-01-21T11:05:42.657Z,27776
2023-01-21T11:06:46.057Z,78688
2023-01-21T11:07:49.782Z,73440
2023-01-21T11:08:53.517Z,62432
2023-01-21T11:09:57.389Z,67968
2023-01-21T11:11:00.545Z,66560
2023-01-21T11:12:04.033Z,64992
2023-01-21T11:13:07.405Z,68832
2023-01-21T11:14:10.129Z,68832
2023-01-21T11:15:14.750Z,69120
2023-01-21T11:16:19.565Z,69408
2023-01-21T11:17:23.343Z,68320
2023-01-21T11:18:27.145Z,66464
2023-01-21T11:19:29.977Z,69376
2023-01-21T11:20:33.776Z,65792
2023-01-21T11:21:37.175Z,67872
2023-01-21T11:22:40.574Z,69184
2023-01-21T11:23:44.323Z,72384
2023-01-21T11:24:47.398Z,75296
2023-01-21T11:25:50.288Z,64352
2023-01-21T11:26:54.018Z,27136
2023-01-21T11:27:57.500Z,19584
2023-01-21T11:29:00.878Z,15552
2023-01-21T11:30:16.613Z,12420
2023-01-21T11:31:59.571Z,9972
2023-01-21T11:33:03.959Z,9340
2023-01-21T11:34:07.285Z,8752
2023-01-21T11:35:11.341Z,8836
2023-01-21T11:36:15.122Z,8348
2023-01-21T11:37:18.896Z,8372
2023-01-21T11:38:22.544Z,7760
2023-01-21T11:39:26.372Z,8036
2023-01-21T11:40:28.904Z,5728
2023-01-21T11:41:32.046Z,4788
2023-01-21T11:42:34.200Z,4156
2023-01-21T11:43:36.912Z,3500
2023-01-21T11:44:40.245Z,3156
2023-01-21T11:45:43.621Z,3348
2023-01-21T11:46:46.717Z,4256
2023-01-21T11:47:49.524Z,3320
2023-01-21T11:48:53.272Z,2720
2023-01-21T11:49:56.370Z,2964
2023-01-21T11:51:00.092Z,2284
2023-01-21T11:52:03.753Z,2860
2023-01-21T11:53:07.490Z,4096
2023-01-21T11:54:10.633Z,3864
2023-01-21T11:55:14.358Z,3476
2023-01-21T11:56:17.085Z,3564
2023-01-21T11:57:20.251Z,3652
2023-01-21T11:58:23.065Z,4164
2023-01-21T11:59:26.706Z,4164
2023-01-21T12:00:30.432Z,6116
2023-01-21T12:01:33.507Z,5716
2023-01-21T12:02:36.413Z,8912
2023-01-21T12:03:39.608Z,10260
2023-01-21T12:04:43.625Z,11420
2023-01-21T12:05:46.712Z,11948
2023-01-21T12:06:50.220Z,10488
2023-01-21T12:07:53.354Z,10484
2023-01-21T12:08:57.077Z,12736
2023-01-21T12:10:00.428Z,15136
2023-01-21T12:11:03.289Z,16044
2023-01-21T12:12:06.693Z,17556
2023-01-21T12:13:09.780Z,15320
2023-01-21T12:14:12.508Z,22176
2023-01-21T12:15:15.295Z,27392
2023-01-21T12:16:18.537Z,33056
2023-01-21T12:17:21.706Z,33984
2023-01-21T12:18:25.116Z,25312
2023-01-21T12:19:28.306Z,15000
2023-01-21T12:20:31.980Z,14840
2023-01-21T12:21:34.838Z,17252
2023-01-21T12:22:38.219Z,31072
2023-01-21T12:23:41.599Z,33568
2023-01-21T12:24:45.137Z,25088
2023-01-21T12:25:48.138Z,24448
2023-01-21T12:26:52.265Z,18400
2023-01-21T12:27:55.483Z,14840
2023-01-21T12:28:58.197Z,15004
2023-01-21T12:30:01.739Z,16272
2023-01-21T12:31:05.163Z,21824
2023-01-21T12:32:09.023Z,28704
2023-01-21T12:33:12.139Z,31136
2023-01-21T12:34:15.238Z,14344
2023-01-21T12:35:18.676Z,18496
2023-01-21T12:36:22.204Z,34528
2023-01-21T12:37:25.850Z,11344
2023-01-21T12:38:28.973Z,11820
2023-01-21T12:39:31.818Z,10688
2023-01-21T12:40:35.287Z,10920
2023-01-21T12:41:39.043Z,11288
2023-01-21T12:42:42.812Z,11928
2023-01-21T12:43:46.014Z,11896
2023-01-21T12:44:49.676Z,10156
2023-01-21T12:45:53.334Z,8500
2023-01-21T12:46:57.069Z,8548
2023-01-21T12:48:00.990Z,10472
2023-01-21T12:49:04.512Z,15312
2023-01-21T12:50:07.589Z,6928
2023-01-21T12:51:11.690Z,6640
2023-01-21T12:52:15.068Z,6780
2023-01-21T12:53:18.827Z,9720
2023-01-21T12:54:22.368Z,8040
2023-01-21T12:55:25.799Z,8844
2023-01-21T12:56:29.517Z,7048
2023-01-21T12:57:33.258Z,7376
2023-01-21T12:58:36.386Z,5948
2023-01-21T12:59:40.495Z,8020
2023-01-21T13:00:43.931Z,8820
2023-01-21T13:01:47.711Z,8612
2023-01-21T13:02:50.926Z,7556
2023-01-21T13:03:54.666Z,6420
2023-01-21T13:04:57.655Z,6224
2023-01-21T13:06:01.187Z,6268
2023-01-21T13:07:04.229Z,6508
2023-01-21T13:08:08.051Z,6640
2023-01-21T13:09:11.732Z,6608
2023-01-21T13:10:15.424Z,5980
2023-01-21T13:11:21.621Z,5596
2023-01-21T13:12:24.875Z,5380
2023-01-21T13:13:28.265Z,5540
2023-01-21T13:14:31.436Z,5376
2023-01-21T13:15:34.577Z,4828
2023-01-21T13:16:37.808Z,4784
2023-01-21T13:17:41.115Z,4956
2023-01-21T13:18:44.212Z,5208
2023-01-21T13:19:47.413Z,5384
2023-01-21T13:20:51.148Z,5324
2023-01-21T13:21:54.226Z,4788
2023-01-21T13:22:57.246Z,4568
2023-01-21T13:24:00.977Z,4896
2023-01-21T13:25:04.733Z,4096
2023-01-21T13:26:08.827Z,3084
2023-01-21T13:27:12.442Z,2652
2023-01-21T13:28:16.098Z,2492
2023-01-21T13:29:19.610Z,1960
2023-01-21T13:30:22.831Z,2100
2023-01-21T13:31:26.338Z,1992
2023-01-21T13:32:29.902Z,1696
2023-01-21T13:33:33.666Z,1328
2023-01-21T13:34:39.297Z,1552
2023-01-21T13:35:43.282Z,1836
2023-01-21T13:36:46.142Z,1712
2023-01-21T13:37:49.337Z,1668
2023-01-21T13:38:53.074Z,1820
2023-01-21T13:39:57.102Z,1792
2023-01-21T13:41:00.217Z,1816
2023-01-21T13:42:03.705Z,2212
2023-01-21T13:43:07.862Z,2720
2023-01-21T13:44:11.289Z,3560
2023-01-21T13:45:14.286Z,4560
2023-01-21T13:46:17.768Z,5456
2023-01-21T13:47:21.231Z,6072
2023-01-21T13:48:24.616Z,6024
2023-01-21T13:49:27.438Z,6124
2023-01-21T13:50:30.807Z,6664
2023-01-21T13:51:34.541Z,7040
2023-01-21T13:52:39.235Z,7644
2023-01-21T13:53:42.645Z,7928
2023-01-21T13:54:46.518Z,7672
2023-01-21T13:55:49.875Z,7116
2023-01-21T13:56:53.134Z,7468
2023-01-21T13:57:56.621Z,7536
2023-01-21T13:59:04.461Z,7512
2023-01-21T14:00:07.078Z,7312
2023-01-21T14:01:10.507Z,7152
2023-01-21T14:02:14.415Z,6956
2023-01-21T14:03:17.924Z,6724
2023-01-21T14:04:20.932Z,6460
2023-01-21T14:05:24.392Z,6192
2023-01-21T14:06:27.150Z,6020
2023-01-21T14:07:30.499Z,5820
2023-01-21T14:08:33.869Z,5640
2023-01-21T14:09:38.608Z,5532
2023-01-21T14:10:42.130Z,5228
2023-01-21T14:11:45.179Z,5020
2023-01-21T14:12:48.912Z,4668
2023-01-21T14:13:52.051Z,4120
2023-01-21T14:14:55.522Z,4000
2023-01-21T14:16:00.170Z,3780
2023-01-21T14:17:05.874Z,3080
2023-01-21T14:18:09.650Z,2408
2023-01-21T14:19:12.968Z,2708
2023-01-21T14:20:16.289Z,2892
2023-01-21T14:21:20.993Z,3048
2023-01-21T14:22:24.391Z,2928
2023-01-21T14:23:27.171Z,2916
2023-01-21T14:24:30.929Z,3268
2023-01-21T14:25:34.388Z,2576
2023-01-21T14:26:37.419Z,2776
2023-01-21T14:27:40.446Z,2560
2023-01-21T14:28:43.618Z,3004
2023-01-21T14:29:46.824Z,3400
2023-01-21T14:30:50.614Z,3112
2023-01-21T14:31:54.048Z,2928
2023-01-21T14:32:57.400Z,2880
2023-01-21T14:34:00.228Z,2852
2023-01-21T14:35:02.684Z,2824
2023-01-21T14:36:06.483Z,2852
2023-01-21T14:37:10.173Z,2736
2023-01-21T14:38:12.906Z,2472
2023-01-21T14:39:15.754Z,2244
2023-01-21T14:40:19.162Z,2504
2023-01-21T14:41:22.346Z,2584
2023-01-21T14:42:25.430Z,2600
2023-01-21T14:43:29.135Z,2404
2023-01-21T14:44:32.565Z,2412